Time;durP1;ratioP1;P1;durP2;ratioP2;P2;SDS_P1;SDS_P2;PMS_P1;PMS_P2;Temp;Humidity;BMP_temperature;BMP_pressure;BME280_temperature;BME280_humidity;BME280_pressure;Samples;Min_cycle;Max_cycle;Signal;HPM_P1;HPM_P2
2021/09/28 00:00:55;;;;;;;2.93;1.10;;;;;;;;;;5075533;28;20732;-74
2021/09/28 00:03:22;;;;;;;4.90;0.93;;;;;;;;;;5075439;28;20803;-72
2021/09/28 00:05:53;;;;;;;7.93;1.50;;;;;;;;;;5075918;28;20530;-73
2021/09/28 00:08:22;;;;;;;4.93;1.40;;;;;;;;;;5075625;28;20452;-73
2021/09/28 00:10:53;;;;;;;3.23;1.63;;;;;;;;;;5075509;28;20467;-73
2021/09/28 00:13:24;;;;;;;4.03;1.20;;;;;;;;;;5073425;28;20718;-72
2021/09/28 00:15:52;;;;;;;2.70;1.30;;;;;;;;;;5075742;28;20457;-73
2021/09/28 00:18:22;;;;;;;2.33;1.40;;;;;;;;;;5075192;28;20468;-73
2021/09/28 00:20:50;;;;;;;2.47;1.03;;;;;;;;;;5075714;28;20458;-73
2021/09/28 00:23:18;;;;;;;4.63;1.70;;;;;;;;;;5075829;28;20533;-73
2021/09/28 00:25:48;;;;;;;3.53;1.17;;;;;;;;;;5074980;28;20480;-71
2021/09/28 00:28:16;;;;;;;2.07;1.03;;;;;;;;;;5074496;28;20755;-73
2021/09/28 00:30:44;;;;;;;2.73;1.40;;;;;;;;;;5074862;28;20457;-72
2021/09/28 00:33:12;;;;;;;2.00;1.10;;;;;;;;;;5075146;28;20468;-72
2021/09/28 00:35:40;;;;;;;5.90;1.60;;;;;;;;;;5074998;28;20847;-72
2021/09/28 00:38:08;;;;;;;3.20;1.10;;;;;;;;;;5078804;28;20468;-72
2021/09/28 00:40:36;;;;;;;2.20;1.10;;;;;;;;;;5077818;28;20939;-73
2021/09/28 00:43:05;;;;;;;4.87;1.67;;;;;;;;;;5078500;28;20495;-72
2021/09/28 00:45:33;;;;;;;3.50;1.43;;;;;;;;;;5078538;28;20453;-72
2021/09/28 00:48:01;;;;;;;3.67;1.60;;;;;;;;;;5077832;28;20547;-72
2021/09/28 00:50:29;;;;;;;2.73;1.40;;;;;;;;;;5078531;28;20452;-72
2021/09/28 00:52:57;;;;;;;3.67;1.43;;;;;;;;;;5077110;28;20475;-72
2021/09/28 00:55:27;;;;;;;3.60;1.50;;;;;;;;;;5077609;28;20747;-72
2021/09/28 00:57:55;;;;;;;2.87;1.80;;;;;;;;;;5077780;28;20604;-72
2021/09/28 01:00:25;;;;;;;5.30;2.40;;;;;;;;;;5077940;28;20524;-72
2021/09/28 01:02:54;;;;;;;6.40;1.47;;;;;;;;;;5076987;28;20523;-72
2021/09/28 01:05:21;;;;;;;4.00;1.73;;;;;;;;;;5077631;28;20571;-72
2021/09/28 01:07:49;;;;;;;6.03;1.80;;;;;;;;;;5077785;28;20460;-73
2021/09/28 01:10:17;;;;;;;4.53;1.77;;;;;;;;;;5077944;28;20463;-73
2021/09/28 01:12:45;;;;;;;3.80;2.20;;;;;;;;;;5077331;28;20539;-71
2021/09/28 01:15:13;;;;;;;3.83;1.63;;;;;;;;;;5077298;28;20865;-73
2021/09/28 01:17:44;;;;;;;9.43;2.07;;;;;;;;;;5077741;28;20518;-73
2021/09/28 01:20:12;;;;;;;6.23;2.20;;;;;;;;;;5077729;28;20484;-73
2021/09/28 01:22:42;;;;;;;6.37;2.60;;;;;;;;;;5077465;28;20463;-73
2021/09/28 01:25:10;;;;;;;6.70;2.53;;;;;;;;;;5076966;28;20460;-73
2021/09/28 01:27:38;;;;;;;4.30;2.50;;;;;;;;;;5075665;28;20445;-73
2021/09/28 01:30:10;;;;;;;4.87;3.20;;;;;;;;;;5076996;28;20460;-73
2021/09/28 01:32:41;;;;;;;10.83;3.00;;;;;;;;;;5077364;28;20964;-72
2021/09/28 01:35:09;;;;;;;6.20;2.90;;;;;;;;;;5077875;28;20526;-72
2021/09/28 01:37:37;;;;;;;11.30;3.40;;;;;;;;;;5077473;28;20492;-73
2021/09/28 01:40:06;;;;;;;7.30;2.53;;;;;;;;;;5077856;28;20523;-72
2021/09/28 01:42:34;;;;;;;15.63;4.00;;;;;;;;;;5078304;28;20460;-73
2021/09/28 01:45:02;;;;;;;7.60;3.47;;;;;;;;;;5077937;28;20464;-73
2021/09/28 01:47:30;;;;;;;7.60;3.57;;;;;;;;;;5076400;28;20537;-72
2021/09/28 01:49:58;;;;;;;13.63;4.00;;;;;;;;;;5077637;28;20912;-72
2021/09/28 01:52:26;;;;;;;11.43;3.50;;;;;;;;;;5077101;28;20437;-71
2021/09/28 01:54:53;;;;;;;10.53;4.23;;;;;;;;;;5077234;28;20751;-72
2021/09/28 01:57:23;;;;;;;6.67;4.03;;;;;;;;;;5077761;28;20852;-73
2021/09/28 01:59:51;;;;;;;12.83;4.00;;;;;;;;;;5078019;28;20515;-73
2021/09/28 02:02:18;;;;;;;11.30;3.77;;;;;;;;;;5077558;28;20457;-73
2021/09/28 02:04:46;;;;;;;6.20;3.63;;;;;;;;;;5077928;28;20476;-73
2021/09/28 02:07:14;;;;;;;10.70;4.50;;;;;;;;;;5077573;28;20449;-72
2021/09/28 02:09:48;;;;;;;8.63;4.87;;;;;;;;;;5076589;28;20584;-72
2021/09/28 02:12:15;;;;;;;6.40;4.43;;;;;;;;;;5076121;28;20902;-72
2021/09/28 02:14:45;;;;;;;9.53;5.17;;;;;;;;;;5076675;28;20464;-72
2021/09/28 02:17:12;;;;;;;11.37;5.23;;;;;;;;;;5076239;28;20452;-73
2021/09/28 02:19:40;;;;;;;11.47;4.43;;;;;;;;;;5076615;28;20524;-73
2021/09/28 02:22:08;;;;;;;11.77;4.70;;;;;;;;;;5077459;28;20452;-73
2021/09/28 02:24:36;;;;;;;6.80;3.83;;;;;;;;;;5077609;28;20475;-73
2021/09/28 02:27:03;;;;;;;9.30;5.60;;;;;;;;;;5077358;28;20917;-73
2021/09/28 02:29:31;;;;;;;7.93;4.50;;;;;;;;;;5077538;28;20711;-73
2021/09/28 02:32:04;;;;;;;9.33;5.17;;;;;;;;;;5077178;28;20525;-72
2021/09/28 02:34:35;;;;;;;15.10;4.90;;;;;;;;;;5077980;28;20845;-73
2021/09/28 02:37:03;;;;;;;7.30;4.73;;;;;;;;;;5077431;28;20452;-74
2021/09/28 02:39:31;;;;;;;9.27;4.77;;;;;;;;;;5077092;28;20927;-73
2021/09/28 02:41:59;;;;;;;12.40;5.03;;;;;;;;;;5076668;28;20472;-76
2021/09/28 02:44:27;;;;;;;7.53;4.47;;;;;;;;;;5075970;28;20489;-73
2021/09/28 02:46:55;;;;;;;9.70;4.37;;;;;;;;;;5078500;28;20885;-74
2021/09/28 02:49:24;;;;;;;8.47;4.70;;;;;;;;;;5077057;28;20460;-74
2021/09/28 02:51:52;;;;;;;15.60;5.20;;;;;;;;;;5077508;28;20453;-73
2021/09/28 02:54:20;;;;;;;11.10;5.53;;;;;;;;;;5077026;28;20456;-73
2021/09/28 02:56:47;;;;;;;7.00;3.83;;;;;;;;;;5075236;28;20461;-73
2021/09/28 02:59:17;;;;;;;12.80;5.27;;;;;;;;;;5075340;28;20956;-73
2021/09/28 03:01:45;;;;;;;10.93;5.43;;;;;;;;;;5075932;28;20463;-73
2021/09/28 03:04:14;;;;;;;13.27;4.87;;;;;;;;;;5076684;28;20465;-74
2021/09/28 03:06:46;;;;;;;7.03;5.17;;;;;;;;;;5076565;28;20433;-72
2021/09/28 03:09:14;;;;;;;7.80;5.33;;;;;;;;;;5075483;28;20476;-73
2021/09/28 03:11:45;;;;;;;14.33;5.20;;;;;;;;;;5074747;28;20452;-73
2021/09/28 03:14:13;;;;;;;8.90;4.77;;;;;;;;;;5075513;28;20468;-73
2021/09/28 03:16:40;;;;;;;11.53;5.03;;;;;;;;;;5076182;28;20456;-73
2021/09/28 03:19:08;;;;;;;12.67;6.20;;;;;;;;;;5076127;28;20475;-74
2021/09/28 03:21:39;;;;;;;11.30;5.20;;;;;;;;;;5075952;28;20958;-73
2021/09/28 03:24:08;;;;;;;8.53;5.00;;;;;;;;;;5076451;28;20460;-74
2021/09/28 03:26:38;;;;;;;12.03;5.57;;;;;;;;;;5076114;28;20453;-72
2021/09/28 03:29:05;;;;;;;7.93;5.30;;;;;;;;;;5075922;28;20464;-73
2021/09/28 03:31:33;;;;;;;11.63;7.20;;;;;;;;;;5076193;28;20551;-73
2021/09/28 03:34:01;;;;;;;13.67;5.53;;;;;;;;;;5074929;28;20474;-72
2021/09/28 03:36:29;;;;;;;12.80;5.90;;;;;;;;;;5075936;28;20480;-72
2021/09/28 03:38:59;;;;;;;12.17;5.70;;;;;;;;;;5075293;28;20555;-75
2021/09/28 03:41:29;;;;;;;18.37;6.67;;;;;;;;;;5076322;28;20794;-75
2021/09/28 03:43:57;;;;;;;7.73;5.30;;;;;;;;;;5075774;28;20472;-73
2021/09/28 03:46:27;;;;;;;10.10;5.63;;;;;;;;;;5075783;28;20513;-74
2021/09/28 03:48:57;;;;;;;9.30;6.33;;;;;;;;;;5075057;28;20507;-73
2021/09/28 03:51:24;;;;;;;14.80;6.33;;;;;;;;;;5074427;28;20472;-73
2021/09/28 03:53:53;;;;;;;8.33;5.60;;;;;;;;;;5074589;28;20459;-73
2021/09/28 03:56:21;;;;;;;10.17;6.47;;;;;;;;;;5073987;28;20472;-73
2021/09/28 03:58:50;;;;;;;11.43;6.13;;;;;;;;;;5075344;28;20522;-73
2021/09/28 04:01:19;;;;;;;12.07;6.60;;;;;;;;;;5075814;28;20532;-73
2021/09/28 04:03:47;;;;;;;12.33;6.77;;;;;;;;;;5069932;28;20477;-74
2021/09/28 04:06:15;;;;;;;13.20;6.83;;;;;;;;;;5064982;28;20466;-73
2021/09/28 04:08:43;;;;;;;19.53;6.40;;;;;;;;;;5055560;28;20461;-73
2021/09/28 04:11:11;;;;;;;12.37;7.27;;;;;;;;;;5058452;28;20515;-73
2021/09/28 04:13:42;;;;;;;17.67;7.40;;;;;;;;;;5059504;28;20461;-74
2021/09/28 04:16:11;;;;;;;11.93;5.87;;;;;;;;;;5059675;28;20543;-73
2021/09/28 04:18:39;;;;;;;10.70;6.50;;;;;;;;;;5058982;28;20457;-73
2021/09/28 04:21:08;;;;;;;10.70;6.73;;;;;;;;;;5058493;28;20492;-73
2021/09/28 04:23:39;;;;;;;13.00;5.13;;;;;;;;;;5059624;28;20568;-72
2021/09/28 04:26:07;;;;;;;10.07;6.90;;;;;;;;;;5059118;28;20935;-74
2021/09/28 04:28:35;;;;;;;10.60;6.67;;;;;;;;;;5058285;28;20460;-74
2021/09/28 04:31:03;;;;;;;9.13;5.87;;;;;;;;;;5057670;28;20492;-73
2021/09/28 04:33:33;;;;;;;10.20;6.23;;;;;;;;;;5057864;28;20594;-74
2021/09/28 04:36:01;;;;;;;18.27;7.20;;;;;;;;;;5059228;28;20452;-74
2021/09/28 04:38:31;;;;;;;13.83;6.47;;;;;;;;;;5057771;28;20457;-74
2021/09/28 04:41:00;;;;;;;10.80;6.20;;;;;;;;;;5057925;28;20484;-73
2021/09/28 04:43:27;;;;;;;12.90;6.50;;;;;;;;;;5058709;28;20461;-74
2021/09/28 04:45:56;;;;;;;9.77;7.00;;;;;;;;;;5058006;28;20493;-74
2021/09/28 04:48:23;;;;;;;9.80;5.90;;;;;;;;;;5057210;28;20642;-73
2021/09/28 04:50:53;;;;;;;9.23;6.07;;;;;;;;;;5057355;28;20752;-73
2021/09/28 04:53:21;;;;;;;11.80;6.43;;;;;;;;;;5057126;28;20749;-73
2021/09/28 04:55:54;;;;;;;14.40;6.00;;;;;;;;;;5059925;28;20849;-74
2021/09/28 04:58:23;;;;;;;8.57;6.10;;;;;;;;;;5056811;28;20885;-73
2021/09/28 05:00:51;;;;;;;8.20;5.57;;;;;;;;;;5056815;28;20511;-73
2021/09/28 05:03:19;;;;;;;9.60;6.30;;;;;;;;;;5055978;28;20902;-72
2021/09/28 05:05:47;;;;;;;12.97;5.13;;;;;;;;;;5056052;28;20453;-72
2021/09/28 05:08:19;;;;;;;5.90;5.30;;;;;;;;;;5057105;28;20493;-73
2021/09/28 05:10:48;;;;;;;10.57;6.40;;;;;;;;;;5054731;28;20461;-72
2021/09/28 05:13:16;;;;;;;12.57;6.73;;;;;;;;;;5055048;28;20768;-73
2021/09/28 05:15:47;;;;;;;11.40;6.50;;;;;;;;;;5056466;28;20648;-74
2021/09/28 05:18:16;;;;;;;13.60;5.10;;;;;;;;;;5054729;28;20695;-75
2021/09/28 05:20:44;;;;;;;9.00;5.80;;;;;;;;;;5054090;28;20725;-74
2021/09/28 05:23:12;;;;;;;12.30;6.13;;;;;;;;;;5051806;28;20461;-74
2021/09/28 05:25:44;;;;;;;10.57;4.93;;;;;;;;;;5054216;28;20567;-73
2021/09/28 05:28:13;;;;;;;9.70;6.10;;;;;;;;;;5055133;28;20853;-74
2021/09/28 05:30:44;;;;;;;12.90;5.90;;;;;;;;;;5050789;28;21011;-73
2021/09/28 05:33:12;;;;;;;7.10;5.20;;;;;;;;;;5052541;28;20461;-74
2021/09/28 05:35:46;;;;;;;8.93;5.10;;;;;;;;;;5052713;28;20456;-73
2021/09/28 05:38:16;;;;;;;11.43;5.37;;;;;;;;;;5061050;28;20767;-73
2021/09/28 05:40:46;;;;;;;11.37;5.53;;;;;;;;;;5070726;28;20908;-73
2021/09/28 05:43:14;;;;;;;16.93;4.90;;;;;;;;;;5074088;28;20542;-74
2021/09/28 05:45:42;;;;;;;10.40;4.20;;;;;;;;;;5073525;28;20551;-73
2021/09/28 05:48:10;;;;;;;9.40;5.00;;;;;;;;;;5074087;28;20468;-74
2021/09/28 05:50:39;;;;;;;7.20;3.60;;;;;;;;;;5074967;28;20899;-73
2021/09/28 05:53:08;;;;;;;10.83;3.83;;;;;;;;;;5073718;28;20944;-73
2021/09/28 05:55:38;;;;;;;11.00;4.63;;;;;;;;;;5072989;28;20653;-73
2021/09/28 05:58:12;;;;;;;10.23;4.83;;;;;;;;;;5071349;28;20467;-73
2021/09/28 06:00:40;;;;;;;8.87;4.53;;;;;;;;;;5057917;28;20488;-73
2021/09/28 06:03:08;;;;;;;12.00;5.03;;;;;;;;;;5055163;28;20453;-74
2021/09/28 06:05:39;;;;;;;8.77;5.00;;;;;;;;;;5055835;28;20469;-73
2021/09/28 06:08:07;;;;;;;8.40;4.10;;;;;;;;;;5057845;28;20457;-74
2021/09/28 06:10:34;;;;;;;9.43;4.63;;;;;;;;;;5053358;28;20480;-73
2021/09/28 06:13:02;;;;;;;16.10;5.87;;;;;;;;;;5054181;28;20737;-73
2021/09/28 06:15:32;;;;;;;11.00;5.23;;;;;;;;;;5054661;28;20496;-73
2021/09/28 06:17:59;;;;;;;9.80;4.43;;;;;;;;;;5053129;28;20476;-73
2021/09/28 06:20:27;;;;;;;7.67;4.70;;;;;;;;;;5052849;28;20548;-73
2021/09/28 06:22:56;;;;;;;6.77;3.73;;;;;;;;;;5054114;28;20559;-73
2021/09/28 06:25:27;;;;;;;12.37;5.50;;;;;;;;;;5059299;28;20459;-74
2021/09/28 06:27:58;;;;;;;10.53;4.30;;;;;;;;;;5072967;28;20468;-74
2021/09/28 06:30:26;;;;;;;8.27;4.83;;;;;;;;;;5073875;28;20543;-73
2021/09/28 06:32:56;;;;;;;10.50;4.10;;;;;;;;;;5063299;28;20951;-73
2021/09/28 06:35:24;;;;;;;8.20;3.90;;;;;;;;;;5049037;28;20516;-73
2021/09/28 06:37:56;;;;;;;6.30;3.60;;;;;;;;;;5067857;28;20563;-73
2021/09/28 06:40:29;;;;;;;9.97;4.20;;;;;;;;;;5074888;28;20484;-74
2021/09/28 06:43:12;;;;;;;9.40;4.30;;;;;;;;;;5072784;28;20460;-74
2021/09/28 06:45:56;;;;;;;8.70;4.33;;;;;;;;;;5038557;28;20480;-72
2021/09/28 06:48:27;;;;;;;8.80;3.90;;;;;;;;;;5052647;28;20934;-74
2021/09/28 06:50:58;;;;;;;11.03;4.50;;;;;;;;;;5068036;28;20576;-74
2021/09/28 06:53:26;;;;;;;7.27;3.63;;;;;;;;;;5054294;28;20523;-74
2021/09/28 06:55:53;;;;;;;8.63;4.10;;;;;;;;;;5060919;28;20448;-74
2021/09/28 06:58:21;;;;;;;6.20;3.93;;;;;;;;;;5072419;28;20547;-72
2021/09/28 07:00:51;;;;;;;10.33;4.27;;;;;;;;;;5054454;28;20525;-73
2021/09/28 07:03:30;;;;;;;6.43;3.70;;;;;;;;;;5070360;28;20464;-73
2021/09/28 07:06:00;;;;;;;6.20;3.90;;;;;;;;;;5089205;28;20929;-73
2021/09/28 07:08:28;;;;;;;7.97;3.50;;;;;;;;;;5070582;28;20456;-73
2021/09/28 07:10:56;;;;;;;5.50;3.70;;;;;;;;;;5073487;28;20460;-73
2021/09/28 07:13:24;;;;;;;9.30;4.17;;;;;;;;;;5071036;28;20605;-72
2021/09/28 07:16:00;;;;;;;18.60;5.27;;;;;;;;;;5054752;28;20463;-72
2021/09/28 07:18:28;;;;;;;10.63;3.90;;;;;;;;;;5067150;28;20521;-72
2021/09/28 07:20:56;;;;;;;9.40;3.77;;;;;;;;;;5072524;28;20496;-73
2021/09/28 07:23:26;;;;;;;6.50;3.33;;;;;;;;;;5060756;28;20807;-73
2021/09/28 07:25:56;;;;;;;8.53;3.23;;;;;;;;;;5053120;28;20464;-72
2021/09/28 07:28:27;;;;;;;7.60;3.70;;;;;;;;;;5059890;28;20761;-74
2021/09/28 07:31:00;;;;;;;6.20;2.60;;;;;;;;;;5053371;28;20475;-73
2021/09/28 07:33:28;;;;;;;4.93;2.77;;;;;;;;;;5053344;28;20468;-73
2021/09/28 07:35:56;;;;;;;9.20;2.20;;;;;;;;;;5053141;28;20840;-73
2021/09/28 07:38:25;;;;;;;6.73;2.87;;;;;;;;;;5051576;28;20483;-73
2021/09/28 07:40:54;;;;;;;6.13;2.80;;;;;;;;;;5053416;28;20537;-73
2021/09/28 07:43:22;;;;;;;8.90;2.70;;;;;;;;;;5053353;28;20457;-72
2021/09/28 07:45:50;;;;;;;6.30;2.50;;;;;;;;;;5051707;28;20544;-72
2021/09/28 07:48:18;;;;;;;5.17;2.40;;;;;;;;;;5066835;28;20453;-73
2021/09/28 07:50:46;;;;;;;7.93;2.93;;;;;;;;;;5059023;28;20464;-73
2021/09/28 07:53:14;;;;;;;7.60;2.93;;;;;;;;;;5074002;28;20456;-73
2021/09/28 07:55:57;;;;;;;4.90;1.50;;;;;;;;;;5074271;28;20457;-73
2021/09/28 07:58:34;;;;;;;10.80;3.00;;;;;;;;;;5074659;28;20498;-73
2021/09/28 08:01:05;;;;;;;11.33;3.20;;;;;;;;;;5084999;28;20451;-73
2021/09/28 08:03:33;;;;;;;4.77;1.37;;;;;;;;;;5080229;28;20456;-72
2021/09/28 08:06:05;;;;;;;5.30;2.33;;;;;;;;;;5070471;28;20509;-72
2021/09/28 08:08:34;;;;;;;8.33;2.37;;;;;;;;;;5069123;28;20448;-72
2021/09/28 08:11:07;;;;;;;3.20;1.70;;;;;;;;;;5062298;28;20912;-72
2021/09/28 08:13:35;;;;;;;5.03;1.63;;;;;;;;;;5073922;28;20807;-72
2021/09/28 08:16:07;;;;;;;8.50;3.20;;;;;;;;;;5073937;28;20452;-73
2021/09/28 08:18:42;;;;;;;2.90;1.20;;;;;;;;;;5059875;28;20472;-74
2021/09/28 08:21:11;;;;;;;2.53;1.33;;;;;;;;;;5053378;28;20492;-73
2021/09/28 08:23:39;;;;;;;5.80;1.70;;;;;;;;;;5052761;28;20457;-72
2021/09/28 08:29:11;;;;;;;5.80;3.03;;;;;;;;;;5069264;28;20467;-74
2021/09/28 08:31:43;;;;;;;2.40;1.43;;;;;;;;;;5056204;28;20938;-73
2021/09/28 08:34:11;;;;;;;4.40;2.17;;;;;;;;;;5081793;28;20454;-73
2021/09/28 08:36:39;;;;;;;3.27;1.77;;;;;;;;;;5093945;28;20455;-73
2021/09/28 08:39:11;;;;;;;4.47;2.00;;;;;;;;;;5082293;28;20872;-73
2021/09/28 08:41:43;;;;;;;3.50;1.80;;;;;;;;;;5074615;28;20487;-73
2021/09/28 08:44:13;;;;;;;5.70;2.17;;;;;;;;;;5074095;28;20525;-74
2021/09/28 08:46:44;;;;;;;2.90;1.57;;;;;;;;;;5071856;28;20823;-75
2021/09/28 08:49:13;;;;;;;8.30;2.10;;;;;;;;;;5073334;28;20514;-74
2021/09/28 08:51:43;;;;;;;7.80;2.87;;;;;;;;;;5073741;28;20841;-74
2021/09/28 08:54:10;;;;;;;3.03;1.33;;;;;;;;;;5073581;28;20457;-74
2021/09/28 08:56:40;;;;;;;5.50;1.60;;;;;;;;;;5072304;28;20464;-74
2021/09/28 08:59:14;;;;;;;5.40;2.03;;;;;;;;;;5073977;28;20448;-73
2021/09/28 09:01:54;;;;;;;4.00;2.17;;;;;;;;;;5076639;28;20488;-74
2021/09/28 09:04:26;;;;;;;4.40;2.27;;;;;;;;;;5069753;28;20493;-73
2021/09/28 09:06:57;;;;;;;4.17;1.50;;;;;;;;;;5057910;28;20520;-73
2021/09/28 09:09:33;;;;;;;20.83;9.83;;;;;;;;;;5056582;28;20456;-73
2021/09/28 09:12:03;;;;;;;3.50;1.80;;;;;;;;;;5047993;28;20470;-74
2021/09/28 09:14:31;;;;;;;2.30;1.30;;;;;;;;;;5076549;28;20456;-73
2021/09/28 09:17:02;;;;;;;3.00;1.67;;;;;;;;;;5075966;28;20894;-73
2021/09/28 09:19:33;;;;;;;8.87;3.40;;;;;;;;;;5076351;28;20537;-73
2021/09/28 09:22:24;;;;;;;3.83;1.73;;;;;;;;;;5066129;28;20494;-73
2021/09/28 09:25:00;;;;;;;3.90;1.50;;;;;;;;;;5052784;28;21056;-74
2021/09/28 09:27:33;;;;;;;2.77;1.03;;;;;;;;;;5070955;28;20448;-72
2021/09/28 09:30:13;;;;;;;6.00;1.30;;;;;;;;;;5059138;28;20446;-73
2021/09/28 09:32:55;;;;;;;3.93;1.77;;;;;;;;;;5057262;28;20456;-74
2021/09/28 09:38:24;;;;;;;7.20;2.43;;;;;;;;;;5055674;28;20767;-74
2021/09/28 09:40:54;;;;;;;5.90;1.70;;;;;;;;;;5056619;28;20465;-74
2021/09/28 09:43:33;;;;;;;7.53;1.73;;;;;;;;;;5063887;28;20861;-74
2021/09/28 09:46:09;;;;;;;4.57;1.13;;;;;;;;;;5060010;28;20803;-74
2021/09/28 09:48:38;;;;;;;3.27;1.20;;;;;;;;;;5054998;28;20750;-74
2021/09/28 09:51:11;;;;;;;3.37;1.47;;;;;;;;;;5064544;28;20457;-73
2021/09/28 09:53:52;;;;;;;4.40;2.23;;;;;;;;;;5069935;28;20459;-73
2021/09/28 09:56:21;;;;;;;5.20;1.97;;;;;;;;;;5063181;28;20813;-74
2021/09/28 09:58:56;;;;;;;8.10;2.17;;;;;;;;;;5074932;28;20456;-73
2021/09/28 10:01:27;;;;;;;8.50;4.83;;;;;;;;;;5071821;28;20460;-73
2021/09/28 10:03:55;;;;;;;2.60;1.10;;;;;;;;;;5078515;28;20482;-73
2021/09/28 10:06:29;;;;;;;5.03;1.10;;;;;;;;;;5064920;28;20472;-73
2021/09/28 10:09:00;;;;;;;3.47;1.47;;;;;;;;;;5072507;28;20459;-73
2021/09/28 10:11:34;;;;;;;4.73;1.50;;;;;;;;;;5071157;28;20874;-72
2021/09/28 10:14:12;;;;;;;3.93;0.83;;;;;;;;;;5046655;28;20499;-73
2021/09/28 10:16:42;;;;;;;3.17;1.13;;;;;;;;;;5065721;28;20980;-72
2021/09/28 10:19:28;;;;;;;6.93;1.20;;;;;;;;;;5073629;28;20787;-73
2021/09/28 10:21:57;;;;;;;3.90;1.30;;;;;;;;;;5072393;28;20476;-73
2021/09/28 10:24:32;;;;;;;5.17;1.40;;;;;;;;;;5073902;28;20551;-73
2021/09/28 10:27:18;;;;;;;4.97;1.67;;;;;;;;;;5071155;28;20456;-73
2021/09/28 10:29:50;;;;;;;3.83;2.13;;;;;;;;;;5069125;28;20526;-72
2021/09/28 10:32:37;;;;;;;5.47;3.17;;;;;;;;;;5055084;28;20469;-72
2021/09/28 10:35:12;;;;;;;6.20;3.30;;;;;;;;;;5051792;28;20522;-72
2021/09/28 10:37:50;;;;;;;7.70;2.53;;;;;;;;;;5054102;28;20450;-72
2021/09/28 10:40:39;;;;;;;3.60;2.00;;;;;;;;;;5065808;28;20906;-73
2021/09/28 10:43:15;;;;;;;3.13;1.77;;;;;;;;;;5057876;28;20951;-73
2021/09/28 10:45:47;;;;;;;6.50;2.13;;;;;;;;;;5058115;28;20887;-72
2021/09/28 10:48:34;;;;;;;2.73;1.90;;;;;;;;;;5059472;28;20453;-72
2021/09/28 10:51:06;;;;;;;2.70;1.40;;;;;;;;;;5071587;28;20538;-73
2021/09/28 10:53:36;;;;;;;3.23;1.67;;;;;;;;;;5064762;28;20830;-73
2021/09/28 10:56:31;;;;;;;5.70;1.27;;;;;;;;;;5063978;28;20740;-73
2021/09/28 10:59:00;;;;;;;3.20;1.47;;;;;;;;;;5059153;28;20751;-73
2021/09/28 11:01:30;;;;;;;4.63;1.77;;;;;;;;;;5057316;28;20482;-73
2021/09/28 11:04:00;;;;;;;7.37;5.00;;;;;;;;;;5071210;28;20489;-73
2021/09/28 11:07:04;;;;;;;4.77;1.37;;;;;;;;;;5064462;28;20454;-74
2021/09/28 11:09:50;;;;;;;1.40;0.77;;;;;;;;;;5053735;28;20449;-73
2021/09/28 11:12:19;;;;;;;4.27;1.93;;;;;;;;;;5072997;28;20514;-73
2021/09/28 11:14:47;;;;;;;3.20;1.00;;;;;;;;;;5070255;28;20459;-71
2021/09/28 11:17:28;;;;;;;2.00;0.90;;;;;;;;;;5052046;28;20454;-72
2021/09/28 11:19:55;;;;;;;3.67;1.33;;;;;;;;;;5052891;28;20756;-73
2021/09/28 11:22:27;;;;;;;1.97;0.90;;;;;;;;;;5056323;28;21129;-73
2021/09/28 11:24:56;;;;;;;3.33;1.47;;;;;;;;;;5038999;28;20481;-73
2021/09/28 11:27:24;;;;;;;3.60;1.90;;;;;;;;;;5071661;28;20553;-72
2021/09/28 11:29:53;;;;;;;3.03;1.47;;;;;;;;;;5068638;28;20463;-73
2021/09/28 11:32:22;;;;;;;4.00;2.83;;;;;;;;;;5066388;28;20468;-74
2021/09/28 11:34:55;;;;;;;3.13;1.70;;;;;;;;;;5057999;28;20462;-72
2021/09/28 11:37:23;;;;;;;5.23;3.27;;;;;;;;;;5051883;28;20551;-73
2021/09/28 11:39:51;;;;;;;2.60;1.30;;;;;;;;;;5053678;28;20509;-73
2021/09/28 11:45:30;;;;;;;1.70;0.90;;;;;;;;;;5050448;28;20463;-73
2021/09/28 11:48:02;;;;;;;3.60;1.77;;;;;;;;;;5052354;28;20485;-72
2021/09/28 11:50:42;;;;;;;4.57;1.43;;;;;;;;;;5052092;28;20519;-72
2021/09/28 11:53:10;;;;;;;4.33;1.10;;;;;;;;;;5052278;28;20483;-72
2021/09/28 11:55:42;;;;;;;5.33;1.63;;;;;;;;;;5051867;28;20574;-73
2021/09/28 11:58:10;;;;;;;5.50;1.00;;;;;;;;;;5073031;28;20455;-73
2021/09/28 12:00:42;;;;;;;5.90;2.00;;;;;;;;;;5070445;28;20928;-74
2021/09/28 12:03:23;;;;;;;5.23;2.10;;;;;;;;;;5071069;28;20522;-73
2021/09/28 12:06:08;;;;;;;1.90;1.00;;;;;;;;;;5070186;28;20736;-73
2021/09/28 12:08:38;;;;;;;5.87;1.70;;;;;;;;;;5072446;28;20543;-73
2021/09/28 12:11:06;;;;;;;4.70;2.20;;;;;;;;;;5064074;28;20454;-73
2021/09/28 12:13:38;;;;;;;2.43;1.47;;;;;;;;;;5061289;28;20527;-74
2021/09/28 12:16:13;;;;;;;3.17;1.20;;;;;;;;;;5056708;28;20473;-73
2021/09/28 12:18:43;;;;;;;5.50;2.00;;;;;;;;;;5071104;28;20807;-73
2021/09/28 12:21:22;;;;;;;5.70;1.60;;;;;;;;;;5064808;28;20462;-73
2021/09/28 12:24:29;;;;;;;2.50;0.93;;;;;;;;;;5063857;28;20991;-73
2021/09/28 12:27:06;;;;;;;4.10;1.83;;;;;;;;;;5058957;28;20535;-73
2021/09/28 12:29:50;;;;;;;4.20;1.57;;;;;;;;;;5085727;28;20447;-74
2021/09/28 12:32:22;;;;;;;3.53;1.77;;;;;;;;;;5068137;28;20780;-73
2021/09/28 12:34:54;;;;;;;4.03;1.20;;;;;;;;;;5079750;28;20810;-73
2021/09/28 12:37:27;;;;;;;2.93;1.10;;;;;;;;;;5065854;28;20460;-72
2021/09/28 12:40:15;;;;;;;4.37;3.50;;;;;;;;;;5092174;28;20455;-73
2021/09/28 12:42:53;;;;;;;6.07;2.23;;;;;;;;;;5055981;28;20481;-71
2021/09/28 12:45:36;;;;;;;4.40;1.90;;;;;;;;;;5052538;28;20485;-72
2021/09/28 12:48:21;;;;;;;6.00;1.60;;;;;;;;;;5081982;28;20454;-72
2021/09/28 12:51:09;;;;;;;3.20;1.70;;;;;;;;;;5061828;28;20456;-74
2021/09/28 12:53:59;;;;;;;5.87;3.77;;;;;;;;;;5058089;28;20812;-73
2021/09/28 12:56:36;;;;;;;3.03;1.27;;;;;;;;;;5056667;28;20699;-74
2021/09/28 13:02:00;;;;;;;5.57;3.03;;;;;;;;;;5049390;28;20449;-72
2021/09/28 13:07:33;;;;;;;3.30;1.57;;;;;;;;;;5046649;28;20466;-72
2021/09/28 13:10:29;;;;;;;3.13;1.20;;;;;;;;;;5064984;28;20765;-73
2021/09/28 13:13:00;;;;;;;1.93;1.13;;;;;;;;;;5045641;28;20441;-72
2021/09/28 13:15:36;;;;;;;4.17;2.40;;;;;;;;;;5057852;28;20477;-73
2021/09/28 13:18:17;;;;;;;2.93;2.03;;;;;;;;;;5058253;28;20476;-73
2021/09/28 13:20:55;;;;;;;1.80;0.83;;;;;;;;;;5039547;28;20782;-74
2021/09/28 13:23:35;;;;;;;4.57;1.80;;;;;;;;;;5056322;28;20870;-72
2021/09/28 13:26:21;;;;;;;3.10;1.37;;;;;;;;;;5055854;28;20530;-74
2021/09/28 13:28:56;;;;;;;4.70;2.50;;;;;;;;;;5071573;28;20739;-73
2021/09/28 13:31:27;;;;;;;2.53;1.30;;;;;;;;;;5075368;28;20570;-72
2021/09/28 13:33:59;;;;;;;6.50;1.77;;;;;;;;;;5075537;28;20514;-73
2021/09/28 13:36:48;;;;;;;3.40;1.43;;;;;;;;;;5067664;28;20523;-73
2021/09/28 13:39:21;;;;;;;3.70;1.67;;;;;;;;;;5075684;28;20483;-74
2021/09/28 13:41:50;;;;;;;4.07;1.10;;;;;;;;;;5074401;28;20464;-73
2021/09/28 13:44:19;;;;;;;3.57;1.50;;;;;;;;;;5068237;28;21001;-73
2021/09/28 13:47:07;;;;;;;3.47;1.73;;;;;;;;;;5069126;28;20468;-73
2021/09/28 13:49:47;;;;;;;10.07;4.83;;;;;;;;;;5055047;28;20458;-74
2021/09/28 13:52:16;;;;;;;5.60;2.20;;;;;;;;;;5073060;28;20452;-71
2021/09/28 13:54:56;;;;;;;5.93;2.43;;;;;;;;;;5061762;28;21078;-73
2021/09/28 13:57:37;;;;;;;5.27;2.90;;;;;;;;;;5055390;28;20460;-72
2021/09/28 14:00:06;;;;;;;6.13;2.40;;;;;;;;;;5042073;28;20464;-71
2021/09/28 14:02:34;;;;;;;5.03;2.67;;;;;;;;;;5067132;28;20480;-70
2021/09/28 14:05:06;;;;;;;4.67;2.80;;;;;;;;;;5073851;28;20759;-70
2021/09/28 14:10:25;;;;;;;4.93;2.07;;;;;;;;;;5074975;28;20447;-71
2021/09/28 14:12:53;;;;;;;3.00;1.57;;;;;;;;;;5073894;28;20459;-70
2021/09/28 14:15:23;;;;;;;4.50;1.40;;;;;;;;;;5064838;28;21151;-71
2021/09/28 14:17:52;;;;;;;2.73;1.47;;;;;;;;;;5057512;28;20472;-72
2021/09/28 14:20:20;;;;;;;2.40;1.47;;;;;;;;;;5053673;28;20449;-71
2021/09/28 14:22:47;;;;;;;3.10;1.83;;;;;;;;;;5062053;28;20456;-71
2021/09/28 14:25:23;;;;;;;2.70;1.40;;;;;;;;;;5067962;28;20452;-71
2021/09/28 14:27:52;;;;;;;6.40;1.90;;;;;;;;;;5054178;28;21036;-72
2021/09/28 14:30:20;;;;;;;2.50;1.40;;;;;;;;;;5074939;28;20505;-72
2021/09/28 14:32:50;;;;;;;4.23;2.17;;;;;;;;;;5054300;28;20543;-71
2021/09/28 14:35:18;;;;;;;3.37;2.27;;;;;;;;;;5057121;28;20535;-71
2021/09/28 14:37:46;;;;;;;3.13;2.00;;;;;;;;;;5060403;28;20556;-71
2021/09/28 14:40:14;;;;;;;2.63;1.10;;;;;;;;;;5060684;28;20564;-72
2021/09/28 14:42:44;;;;;;;4.43;2.23;;;;;;;;;;5057018;28;20496;-72
2021/09/28 14:45:20;;;;;;;5.10;2.27;;;;;;;;;;5060982;28;20854;-74
2021/09/28 14:47:53;;;;;;;3.37;1.70;;;;;;;;;;5053812;28;20559;-73
2021/09/28 14:50:54;;;;;;;9.60;6.20;;;;;;;;;;5067525;28;20567;-73
2021/09/28 14:53:29;;;;;;;7.83;6.07;;;;;;;;;;5066419;28;20534;-71
2021/09/28 14:56:05;;;;;;;2.87;1.63;;;;;;;;;;5069713;28;21301;-73
2021/09/28 15:02:18;;;;;;;5.20;3.00;;;;;;;;;;4983242;28;20599;-73
2021/09/28 15:04:50;;;;;;;8.60;5.47;;;;;;;;;;4987532;28;20491;-74
2021/09/28 15:07:52;;;;;;;5.30;3.77;;;;;;;;;;4987325;28;20464;-73
2021/09/28 15:10:28;;;;;;;4.23;1.80;;;;;;;;;;5064720;28;20451;-72
2021/09/28 15:19:00;;;;;;;5.40;2.10;;;;;;;;;;5046140;28;20453;-73
2021/09/28 15:21:33;;;;;;;2.57;1.20;;;;;;;;;;5065637;28;20459;-72
2021/09/28 15:24:01;;;;;;;6.00;2.60;;;;;;;;;;5068342;28;20507;-72
2021/09/28 15:26:29;;;;;;;5.43;3.43;;;;;;;;;;5067367;28;20461;-70
2021/09/28 15:29:27;;;;;;;4.57;2.60;;;;;;;;;;5047949;28;20480;-70
2021/09/28 15:31:59;;;;;;;8.20;4.77;;;;;;;;;;5043005;28;20479;-71
2021/09/28 15:34:36;;;;;;;5.93;3.10;;;;;;;;;;5070967;28;20448;-71